Negaunee, MI

1:33 PM EDT on May 30, 2015 (GMT -0400)
Negaunee, Michigan | | Change Station
CLOSE
Current Station
Personal Weather Station
Location: Negaunee, MI
Elevation: 1305 ft
Nearby Weather Stations
Active Advisory: Frost Advisory

Elev 1305 ft 46.50 °N, 87.61 °W | Updated 14 minutes ago

Mostly Cloudy
Mostly Cloudy
50.0 °F
Feels Like 50.0 °F
N
2.2
Wind Variable Wind from NE

Today
High -- | Low -- °F
--% Chance of Precip.
Yesterday
High -- | Low -- °F
Precip. -- in
6:02 AM 9:33 PM
Waxing Gibbous, 91% visible
Pressure 30.23 in
Visibility 10.0 miles
Clouds Mostly Cloudy 1700 ft
Dew Point 39 °F
Humidity 66%
Rainfall 0.07 in
Snow Depth Not available.
UV 6 out of 12
Pollen 5.50 out of 12
Air Quality Not available.
Flu Activity Sporadic
METAR KSAW 301645Z 01021G27KT 10SM BKN017 06/01 A3023

More Conditions Fewer Conditions

Pressure 30.23 in
Visibility 10.0 miles
Clouds Mostly Cloudy 1700 ft
Dew Point 39 °F
Humidity 66%
Rainfall 0.07 in
Snow Depth Not available.
UV 6 out of 12
Pollen 5.50 out of 12
Air Quality Not available.
Flu Activity Sporadic
METAR KSAW 301645Z 01021G27KT 10SM BKN017 06/01 A3023

More Conditions Fewer Conditions

10-Day Weather Forecast

Almanac

Astronomy

May. 30, 2015 Rise Set
Actual Time
Civil Twilight
Nautical Twilight
Astronomical Twilight
Moon
Length of Visible Light
Length of Day
Tomorrow will be .
, % of the Moon is Illuminated

Today's Extremes

State Highs State Lows

Community

WunderPhotos

Upload Photos

1,825,580 photos uploaded!

WunderBlogs® & News

Nearby

Air Quality

  Air Quality AQ Index Pollutant
Not available.

Snow Depth

Station Depth Elevation

Earthquake Activity

City Distance Mag. Time & Date
Minimum magnitude displayed is 2.5.

Coastal Water Temperatures

Place Temperature

Stations

Nearby Weather Stations

Station Location Temp. Windchill Dew Point Humidity Wind Precip. Elev Updated Type
                   
Frost Advisory
Statement as of 10:59 AM EDT on May 30, 2015

... Frost advisory remains in effect from midnight EDT /11 PM CDT/
tonight to 8 am EDT /7 am CDT/ Sunday...

Hazardous weather...

* frost is expected to develop after midnight tonight... as
   temperatures fall into the lower to middle 30s.

* The lowest temperatures and heaviest frost is expected inland
   from the Lake Superior and Lake Michigan shorelines.

* Frost is also expected on Sunday night.

Impacts...

* sensitive plants and vegetation could be damaged if not
   protected or brought inside tonight.

Precautionary/preparedness actions...

* a frost advisory means that frost is possible.

* Prepare... plan... and stay informed. Visit www.Weather.Gov/MQT



Kf